createdAt,value
2019-02-22T00:01:39.316Z,25.83
2019-02-22T00:04:10.243Z,33.33
2019-02-22T00:06:43.479Z,27.77
2019-02-22T00:09:13.277Z,33.53
2019-02-22T00:11:43.713Z,34.73
2019-02-22T00:14:13.799Z,26.37
2019-02-22T00:16:43.940Z,33.43
2019-02-22T00:19:15.288Z,30.87
2019-02-22T00:21:45.365Z,31.50
2019-02-22T00:24:15.474Z,27.73
2019-02-22T00:26:45.545Z,34.10
2019-02-22T00:29:15.580Z,30.93
2019-02-22T00:31:45.659Z,33.17
2019-02-22T00:34:17.228Z,29.77
2019-02-22T00:36:47.431Z,26.40
2019-02-22T00:39:17.620Z,28.03
2019-02-22T00:41:50.688Z,22.40
2019-02-22T00:44:22.306Z,28.90
2019-02-22T00:46:52.422Z,33.93
2019-02-22T00:49:22.404Z,28.40
2019-02-22T00:51:52.491Z,33.90
2019-02-22T00:54:22.548Z,24.17
2019-02-22T00:56:54.328Z,28.10
2019-02-22T00:59:24.318Z,27.65
2019-02-22T01:01:54.389Z,30.60
2019-02-22T01:04:24.394Z,29.20
2019-02-22T01:06:57.519Z,28.00
2019-02-22T01:09:27.528Z,27.70
2019-02-22T01:11:57.530Z,25.10
2019-02-22T01:14:29.367Z,27.20
2019-02-22T01:16:59.474Z,24.73
2019-02-22T01:19:32.593Z,30.93
2019-02-22T01:22:02.676Z,28.00
2019-02-22T01:24:32.695Z,28.27
2019-02-22T01:27:02.824Z,30.97
2019-02-22T01:29:32.826Z,48.63
2019-02-22T01:32:06.864Z,33.37
2019-02-22T01:34:38.231Z,29.77
2019-02-22T01:37:08.284Z,28.07
2019-02-22T01:39:39.393Z,27.83
2019-02-22T01:42:13.442Z,22.70
2019-02-22T01:44:44.781Z,26.10
2019-02-22T01:47:15.971Z,27.70
2019-02-22T01:49:46.956Z,27.63
2019-02-22T01:52:22.748Z,29.07
2019-02-22T01:54:52.510Z,31.20
2019-02-22T01:57:22.593Z,43.80
2019-02-22T01:59:52.666Z,28.63
2019-02-22T02:02:24.221Z,34.00
2019-02-22T02:04:54.383Z,30.90
2019-02-22T02:07:27.235Z,28.67
2019-02-22T02:09:57.331Z,42.03
2019-02-22T02:12:28.712Z,31.47
2019-02-22T02:15:00.505Z,33.37
2019-02-22T02:17:32.125Z,30.63
2019-02-22T02:20:09.242Z,36.57
2019-02-22T02:22:40.083Z,34.63
2019-02-22T02:25:13.423Z,35.40
2019-02-22T02:27:47.500Z,31.80
2019-02-22T02:30:17.333Z,34.33
2019-02-22T02:32:47.393Z,33.87
2019-02-22T02:35:18.941Z,35.23
2019-02-22T02:37:49.006Z,31.47
2019-02-22T02:40:23.452Z,42.57
2019-02-22T02:42:54.650Z,33.97
2019-02-22T02:45:24.648Z,30.90
2019-02-22T02:47:56.628Z,29.03
2019-02-22T02:50:27.853Z,31.70
2019-02-22T02:52:57.925Z,31.03
2019-02-22T02:55:30.273Z,37.77
2019-02-22T02:58:00.427Z,30.07
2019-02-22T03:00:32.320Z,33.20
2019-02-22T03:03:08.059Z,32.17
2019-02-22T03:05:47.828Z,41.17
2019-02-22T03:08:17.969Z,32.30
2019-02-22T03:10:49.665Z,33.13
2019-02-22T03:13:19.804Z,45.97
2019-02-22T03:15:52.672Z,35.27
2019-02-22T03:18:22.754Z,34.80
2019-02-22T03:20:54.404Z,38.37
2019-02-22T03:23:25.510Z,39.30
2019-02-22T03:25:56.816Z,34.60
2019-02-22T03:28:29.813Z,47.20
2019-02-22T03:31:01.860Z,38.50
2019-02-22T03:33:33.537Z,39.80
2019-02-22T03:36:03.609Z,43.60
2019-02-22T03:38:35.472Z,38.07
2019-02-22T03:41:05.656Z,41.37
2019-02-22T03:43:35.807Z,46.23
2019-02-22T03:46:09.049Z,44.17
2019-02-22T03:48:39.125Z,43.87
2019-02-22T03:51:09.194Z,50.60
2019-02-22T03:53:46.610Z,47.80
2019-02-22T03:56:19.483Z,43.37
2019-02-22T03:58:49.483Z,50.13
2019-02-22T04:01:20.776Z,42.23
2019-02-22T04:03:50.912Z,44.77
2019-02-22T04:06:22.705Z,45.70
2019-02-22T04:08:52.775Z,44.70
2019-02-22T04:11:22.863Z,39.43
2019-02-22T04:13:52.960Z,44.80
2019-02-22T04:16:23.215Z,46.47
2019-02-22T04:18:54.433Z,44.20
2019-02-22T04:21:24.511Z,43.30
2019-02-22T04:23:55.789Z,45.37
2019-02-22T04:26:26.842Z,45.73
2019-02-22T04:28:58.608Z,45.90
2019-02-22T04:31:33.915Z,51.70
2019-02-22T04:34:00.475Z,52.93
2019-02-22T04:36:32.496Z,50.10
2019-02-22T04:39:04.676Z,54.70
2019-02-22T04:41:36.501Z,56.90
2019-02-22T04:44:09.857Z,56.90
2019-02-22T04:46:43.006Z,57.53
2019-02-22T04:49:13.271Z,54.00
2019-02-22T04:51:45.224Z,60.70
2019-02-22T04:54:16.942Z,57.27
2019-02-22T04:56:47.011Z,61.13
2019-02-22T04:59:18.566Z,54.40
2019-02-22T05:01:51.670Z,54.80
2019-02-22T05:04:24.189Z,55.50
2019-02-22T05:06:55.728Z,49.40
2019-02-22T05:09:26.964Z,55.80
2019-02-22T05:11:57.088Z,54.17
2019-02-22T05:14:27.106Z,52.77
2019-02-22T05:16:58.275Z,52.90
2019-02-22T05:19:31.462Z,66.93
2019-02-22T05:22:01.450Z,58.23
2019-02-22T05:24:32.749Z,50.80
2019-02-22T05:27:04.806Z,52.63
2019-02-22T05:29:34.922Z,57.10
2019-02-22T05:32:05.762Z,60.17
2019-02-22T05:34:35.905Z,54.17
2019-02-22T05:37:07.116Z,69.40
2019-02-22T05:39:38.298Z,56.13
2019-02-22T05:42:08.368Z,57.57
2019-02-22T05:44:40.209Z,58.63
2019-02-22T05:47:14.206Z,67.27
2019-02-22T05:49:44.296Z,59.17
2019-02-22T05:52:14.455Z,59.47
2019-02-22T05:54:45.752Z,66.10
2019-02-22T05:57:15.818Z,57.80
2019-02-22T05:59:47.689Z,58.23
2019-02-22T06:02:19.367Z,65.53
2019-02-22T06:04:49.526Z,67.23
2019-02-22T06:07:20.130Z,58.47
2019-02-22T06:09:50.128Z,65.07
2019-02-22T06:12:20.257Z,60.93
2019-02-22T06:14:50.278Z,52.70
2019-02-22T06:17:21.353Z,59.10
2019-02-22T06:19:51.334Z,58.30
2019-02-22T06:22:29.682Z,58.90
2019-02-22T06:24:57.536Z,50.57
2019-02-22T06:27:28.570Z,59.47
2019-02-22T06:30:03.392Z,54.13
2019-02-22T06:32:34.817Z,59.73
2019-02-22T06:35:05.086Z,68.97
2019-02-22T06:37:35.223Z,64.60
2019-02-22T06:40:05.934Z,58.00
2019-02-22T06:42:45.294Z,71.30
2019-02-22T06:45:17.045Z,58.80
2019-02-22T06:47:48.101Z,59.33
2019-02-22T06:50:19.927Z,63.37
2019-02-22T06:52:52.705Z,57.97
2019-02-22T06:55:23.640Z,70.90
2019-02-22T06:57:53.693Z,60.37
2019-02-22T07:00:24.881Z,67.60
2019-02-22T07:02:56.340Z,62.50
2019-02-22T07:05:27.809Z,65.70
2019-02-22T07:08:05.856Z,59.07
2019-02-22T07:10:54.921Z,60.63
2019-02-22T07:13:26.241Z,65.03
2019-02-22T07:15:59.306Z,61.47
2019-02-22T07:18:35.001Z,62.10
2019-02-22T07:21:05.125Z,65.37
2019-02-22T07:23:36.163Z,59.70
2019-02-22T07:26:09.072Z,69.03
2019-02-22T07:28:40.905Z,67.40
2019-02-22T07:31:11.004Z,82.10
2019-02-22T07:33:41.005Z,75.33
2019-02-22T07:36:11.195Z,78.13
2019-02-22T07:38:41.344Z,75.13
2019-02-22T07:41:12.628Z,70.83
2019-02-22T07:43:44.392Z,79.03
2019-02-22T07:46:14.481Z,75.60
2019-02-22T07:48:47.007Z,69.17
2019-02-22T07:51:18.732Z,76.27
2019-02-22T07:53:48.059Z,70.30
2019-02-22T07:56:19.366Z,66.80
2019-02-22T07:58:51.397Z,68.10
2019-02-22T08:01:26.906Z,76.80
2019-02-22T08:03:58.932Z,69.00
2019-02-22T08:06:29.028Z,74.47
2019-02-22T08:09:00.776Z,69.77
2019-02-22T08:11:38.134Z,70.40
2019-02-22T08:14:12.398Z,77.17
2019-02-22T08:16:42.548Z,58.80
2019-02-22T08:19:16.165Z,63.03
2019-02-22T08:21:47.082Z,68.27
2019-02-22T08:24:17.217Z,66.07
2019-02-22T08:26:48.928Z,61.93
2019-02-22T08:29:18.937Z,65.77
2019-02-22T08:31:50.722Z,59.00
2019-02-22T08:34:20.798Z,74.57
2019-02-22T08:36:55.530Z,61.10
2019-02-22T08:39:25.688Z,60.80
2019-02-22T08:41:57.465Z,69.60
2019-02-22T08:44:28.337Z,73.17
2019-02-22T08:46:58.438Z,57.97
2019-02-22T08:49:30.036Z,58.53
2019-02-22T08:52:04.214Z,59.40
2019-02-22T08:54:34.327Z,64.30
2019-02-22T08:57:04.413Z,63.67
2019-02-22T08:59:34.502Z,61.43
2019-02-22T09:02:04.592Z,62.90
2019-02-22T09:04:34.770Z,55.13
2019-02-22T09:07:04.791Z,71.20
2019-02-22T09:09:34.880Z,62.60
2019-02-22T09:12:04.947Z,53.03
2019-02-22T09:14:38.207Z,56.57
2019-02-22T09:17:08.320Z,52.43
2019-02-22T09:19:38.388Z,54.07
2019-02-22T09:22:08.506Z,57.27
2019-02-22T09:24:38.577Z,52.50
2019-02-22T09:27:08.669Z,53.43
2019-02-22T09:29:38.747Z,45.80
2019-02-22T09:32:08.861Z,48.27
2019-02-22T09:34:38.939Z,50.87
2019-02-22T09:37:09.018Z,52.37
2019-02-22T09:39:39.177Z,50.50
2019-02-22T09:42:09.258Z,49.10
2019-02-22T09:44:39.264Z,48.07
2019-02-22T09:47:09.375Z,50.07
2019-02-22T09:49:39.477Z,53.20
2019-02-22T09:52:09.637Z,61.20
2019-02-22T09:54:39.705Z,47.03
2019-02-22T09:57:09.812Z,55.53
2019-02-22T09:59:39.934Z,52.27
2019-02-22T10:02:10.044Z,48.63
2019-02-22T10:04:40.142Z,50.03
2019-02-22T10:07:10.324Z,50.50
2019-02-22T10:09:40.450Z,49.80
2019-02-22T10:12:10.676Z,71.43
2019-02-22T10:14:40.850Z,54.40
2019-02-22T10:17:10.935Z,53.20
2019-02-22T10:19:41.044Z,52.93
2019-02-22T10:22:11.225Z,47.30
2019-02-22T10:24:41.356Z,46.43
2019-02-22T10:27:12.236Z,53.23
2019-02-22T10:29:42.438Z,46.17
2019-02-22T10:32:12.478Z,45.30
2019-02-22T10:34:42.580Z,47.63
2019-02-22T10:37:12.713Z,44.33
2019-02-22T10:39:42.804Z,48.20
2019-02-22T10:42:12.878Z,45.27
2019-02-22T10:44:42.960Z,38.90
2019-02-22T10:47:13.056Z,44.33
2019-02-22T10:49:43.157Z,44.00
2019-02-22T10:52:13.239Z,51.83
2019-02-22T10:54:43.336Z,45.30
2019-02-22T10:57:13.484Z,46.87
2019-02-22T10:59:43.555Z,47.43
2019-02-22T11:02:13.655Z,42.33
2019-02-22T11:04:43.800Z,46.40
2019-02-22T11:07:13.946Z,49.83
2019-02-22T11:09:44.116Z,46.13
2019-02-22T11:12:14.195Z,47.70
2019-02-22T11:14:45.921Z,47.67
2019-02-22T11:17:16.159Z,55.67
2019-02-22T11:19:46.271Z,44.20
2019-02-22T11:22:16.365Z,54.90
2019-02-22T11:24:46.455Z,48.10
2019-02-22T11:27:16.603Z,49.23
2019-02-22T11:29:49.186Z,45.50
2019-02-22T11:32:18.411Z,48.67
2019-02-22T11:34:48.508Z,47.63
2019-02-22T11:37:18.618Z,42.00
2019-02-22T11:39:48.640Z,46.60
2019-02-22T11:42:20.539Z,37.83
2019-02-22T11:44:50.596Z,44.60
2019-02-22T11:47:20.700Z,43.03
2019-02-22T11:49:50.859Z,44.90
2019-02-22T11:52:20.889Z,40.27
2019-02-22T11:54:50.983Z,44.23
2019-02-22T11:57:22.639Z,43.57
2019-02-22T11:59:53.987Z,45.00
2019-02-22T12:02:25.717Z,43.60
2019-02-22T12:04:57.093Z,42.83
2019-02-22T12:07:27.173Z,40.80
2019-02-22T12:09:57.267Z,41.90
2019-02-22T12:12:28.825Z,41.73
2019-02-22T12:15:00.521Z,39.90
2019-02-22T12:17:32.312Z,40.53
2019-02-22T12:20:02.424Z,36.97
2019-02-22T12:22:33.768Z,43.63
2019-02-22T12:25:05.679Z,40.37
2019-02-22T12:27:35.856Z,38.57
2019-02-22T12:30:12.212Z,35.53
2019-02-22T12:32:42.301Z,44.20
2019-02-22T12:35:12.472Z,38.20
2019-02-22T12:37:42.552Z,42.60
2019-02-22T12:40:15.238Z,42.20
2019-02-22T12:42:48.602Z,35.77
2019-02-22T12:45:18.771Z,38.03
2019-02-22T12:47:48.884Z,37.53
2019-02-22T12:50:18.992Z,34.37
2019-02-22T12:52:50.877Z,36.90
2019-02-22T12:55:23.964Z,37.13
2019-02-22T12:57:54.144Z,32.48
2019-02-22T13:00:24.259Z,35.30
2019-02-22T13:03:01.997Z,33.20
2019-02-22T13:05:26.567Z,35.50
2019-02-22T13:07:56.728Z,38.47
2019-02-22T13:10:26.816Z,30.07
2019-02-22T13:12:56.963Z,34.30
2019-02-22T13:15:27.064Z,29.07
2019-02-22T13:17:57.169Z,31.57
2019-02-22T13:20:30.365Z,32.80
2019-02-22T13:23:02.930Z,32.70
2019-02-22T13:25:32.312Z,28.90
2019-02-22T13:28:02.458Z,34.73
2019-02-22T13:30:32.617Z,26.57
2019-02-22T13:33:02.757Z,27.00
2019-02-22T13:35:32.929Z,31.27
2019-02-22T13:38:02.972Z,31.67
2019-02-22T13:40:33.108Z,29.77
2019-02-22T13:43:05.300Z,30.93
2019-02-22T13:45:35.013Z,30.40
2019-02-22T13:48:05.246Z,28.60
2019-02-22T13:50:35.444Z,27.07
2019-02-22T13:53:05.636Z,27.23
2019-02-22T13:55:35.717Z,26.30
2019-02-22T13:58:05.858Z,29.30
2019-02-22T14:00:36.136Z,28.73
2019-02-22T14:03:06.418Z,26.33
2019-02-22T14:05:36.533Z,24.10
2019-02-22T14:08:06.707Z,26.03
2019-02-22T14:10:36.935Z,26.80
2019-02-22T14:13:10.530Z,23.90
2019-02-22T14:15:42.605Z,24.00
2019-02-22T14:18:13.545Z,24.50
2019-02-22T14:20:47.115Z,25.20
2019-02-22T14:23:20.983Z,21.47
2019-02-22T14:25:52.662Z,22.80
2019-02-22T14:28:22.829Z,18.87
2019-02-22T14:30:52.940Z,16.27
2019-02-22T14:33:26.324Z,18.33
2019-02-22T14:35:59.143Z,18.47
2019-02-22T14:38:30.246Z,15.30
2019-02-22T14:41:03.487Z,15.93
2019-02-22T14:43:35.986Z,16.07
2019-02-22T14:46:06.682Z,17.27
2019-02-22T14:48:38.036Z,16.43
2019-02-22T14:51:15.091Z,18.87
2019-02-22T14:53:46.417Z,17.50
2019-02-22T14:56:16.256Z,16.47
2019-02-22T14:58:47.598Z,17.73
2019-02-22T15:01:17.720Z,13.63
2019-02-22T15:03:49.060Z,13.60
2019-02-22T15:06:19.206Z,15.83
2019-02-22T15:08:50.320Z,18.13
2019-02-22T15:11:20.613Z,9.20
2019-02-22T15:13:50.688Z,14.23
2019-02-22T15:16:32.164Z,7.63
2019-02-22T15:19:02.228Z,8.00
2019-02-22T15:21:34.521Z,8.27
2019-02-22T15:24:10.423Z,6.60
2019-02-22T15:26:41.300Z,8.40
2019-02-22T15:29:13.264Z,7.63
2019-02-22T15:31:43.430Z,6.77
2019-02-22T15:34:13.553Z,8.23
2019-02-22T15:36:43.768Z,12.70
2019-02-22T15:39:21.197Z,12.80
2019-02-22T15:41:51.335Z,8.20
2019-02-22T15:44:24.307Z,8.10
2019-02-22T15:46:57.496Z,6.97
2019-02-22T15:49:28.790Z,8.00
2019-02-22T15:51:58.899Z,8.13
2019-02-22T15:54:33.509Z,8.10
2019-02-22T15:57:03.655Z,5.90
2019-02-22T15:59:34.789Z,6.67
2019-02-22T16:02:05.428Z,5.27
2019-02-22T16:04:41.996Z,9.93
2019-02-22T16:07:12.145Z,16.90
2019-02-22T16:09:42.269Z,14.37
2019-02-22T16:12:13.626Z,8.70
2019-02-22T16:14:45.059Z,6.80
2019-02-22T16:17:15.276Z,10.90
2019-02-22T16:19:47.139Z,5.77
2019-02-22T16:22:17.426Z,8.40
2019-02-22T16:24:47.758Z,8.17
2019-02-22T16:27:17.892Z,7.27
2019-02-22T16:29:49.313Z,8.30
2019-02-22T16:32:19.459Z,8.63
2019-02-22T16:34:49.685Z,8.73
2019-02-22T16:37:21.619Z,7.10
2019-02-22T16:39:54.165Z,7.60
2019-02-22T16:42:23.558Z,9.30
2019-02-22T16:44:53.843Z,15.07
2019-02-22T16:47:26.435Z,14.83
2019-02-22T16:49:55.871Z,14.10
2019-02-22T16:52:27.951Z,13.50
2019-02-22T16:54:57.843Z,19.63
2019-02-22T16:57:28.028Z,14.50
2019-02-22T16:59:58.165Z,19.07
2019-02-22T17:02:32.721Z,15.63
2019-02-22T17:05:02.929Z,17.00
2019-02-22T17:07:36.897Z,19.97
2019-02-22T17:10:08.662Z,19.13
2019-02-22T17:12:38.816Z,16.10
2019-02-22T17:15:10.738Z,21.83
2019-02-22T17:17:45.049Z,26.47
2019-02-22T17:20:15.537Z,22.83
2019-02-22T17:22:45.660Z,22.77
2019-02-22T17:25:16.221Z,21.17
2019-02-22T17:27:46.444Z,17.67
2019-02-22T17:30:16.635Z,21.47
2019-02-22T17:32:46.839Z,18.77
2019-02-22T17:35:17.058Z,28.10
2019-02-22T17:37:47.293Z,58.73
2019-02-22T17:40:17.446Z,32.83
2019-02-22T17:42:47.658Z,36.77
2019-02-22T17:45:22.206Z,18.50
2019-02-22T17:47:52.401Z,19.53
2019-02-22T17:50:28.041Z,14.67
2019-02-22T17:52:57.492Z,15.40
2019-02-22T17:55:27.686Z,16.43
2019-02-22T17:57:57.846Z,14.87
2019-02-22T18:00:29.759Z,12.00
2019-02-22T18:03:02.806Z,10.23
2019-02-22T18:05:33.586Z,12.07
2019-02-22T18:08:03.821Z,11.63
2019-02-22T18:10:34.056Z,13.40
2019-02-22T18:13:04.197Z,12.50
2019-02-22T18:15:34.417Z,12.17
2019-02-22T18:18:05.669Z,13.33
2019-02-22T18:20:35.832Z,11.97
2019-02-22T18:23:06.065Z,12.33
2019-02-22T18:25:36.295Z,13.10
2019-02-22T18:28:07.079Z,14.13
2019-02-22T18:30:37.285Z,14.13
2019-02-22T18:33:07.515Z,13.83
2019-02-22T18:35:37.787Z,13.20
2019-02-22T18:38:07.957Z,15.73
2019-02-22T18:40:38.598Z,15.60
2019-02-22T18:43:08.742Z,18.83
2019-02-22T18:45:39.322Z,19.80
2019-02-22T18:48:11.941Z,18.20
2019-02-22T18:50:42.676Z,21.17
2019-02-22T18:53:13.887Z,22.30
2019-02-22T18:55:50.252Z,17.83
2019-02-22T18:58:17.051Z,14.17
2019-02-22T19:00:51.168Z,12.43
2019-02-22T19:03:22.464Z,11.97
2019-02-22T19:05:54.652Z,11.17
2019-02-22T19:08:32.019Z,11.73
2019-02-22T19:10:56.628Z,11.70
2019-02-22T19:13:26.881Z,11.27
2019-02-22T19:15:57.525Z,11.53
2019-02-22T19:18:27.782Z,15.67
2019-02-22T19:20:59.134Z,12.20
2019-02-22T19:23:31.039Z,11.43
2019-02-22T19:26:02.788Z,10.63
2019-02-22T19:28:33.643Z,12.50
2019-02-22T19:31:05.742Z,9.40
2019-02-22T19:33:36.138Z,11.87
2019-02-22T19:36:08.693Z,12.60
2019-02-22T19:38:38.992Z,12.27
2019-02-22T19:41:09.429Z,12.93
2019-02-22T19:43:42.986Z,12.17
2019-02-22T19:46:15.489Z,10.43
2019-02-22T19:48:45.806Z,11.40
2019-02-22T19:51:16.441Z,14.43
2019-02-22T19:53:47.060Z,13.70
2019-02-22T19:56:17.667Z,13.60
2019-02-22T19:58:48.258Z,12.37
2019-02-22T20:01:18.650Z,10.30
2019-02-22T20:03:49.458Z,10.50
2019-02-22T20:06:20.013Z,10.00
2019-02-22T20:08:50.698Z,9.27
2019-02-22T20:11:21.092Z,9.30
2019-02-22T20:13:52.404Z,9.03
2019-02-22T20:16:22.667Z,8.53
2019-02-22T20:18:55.017Z,8.73
2019-02-22T20:21:26.824Z,9.23
2019-02-22T20:23:59.574Z,8.50
2019-02-22T20:26:31.872Z,9.30
2019-02-22T20:29:02.593Z,8.00
2019-02-22T20:31:34.379Z,8.77
2019-02-22T20:34:07.104Z,8.73
2019-02-22T20:36:37.842Z,8.90
2019-02-22T20:39:10.181Z,8.17
2019-02-22T20:41:41.735Z,8.90
2019-02-22T20:44:12.151Z,8.57
2019-02-22T20:46:43.666Z,7.37
2019-02-22T20:49:15.444Z,7.90
2019-02-22T20:51:46.362Z,6.90
2019-02-22T20:54:16.621Z,7.20
2019-02-22T20:56:46.930Z,7.50
2019-02-22T20:59:17.207Z,7.60
2019-02-22T21:01:47.446Z,7.80
2019-02-22T21:04:17.933Z,7.57
2019-02-22T21:06:49.437Z,8.03
2019-02-22T21:09:21.692Z,6.80
2019-02-22T21:11:53.732Z,7.93
2019-02-22T21:14:24.922Z,6.80
2019-02-22T21:16:56.637Z,8.00
2019-02-22T21:19:30.494Z,7.67
2019-02-22T21:22:04.116Z,7.13
2019-02-22T21:24:35.779Z,7.80
2019-02-22T21:27:06.023Z,7.57
2019-02-22T21:29:38.969Z,8.57
2019-02-22T21:32:09.172Z,7.60
2019-02-22T21:34:39.498Z,6.67
2019-02-22T21:37:09.795Z,7.53
2019-02-22T21:39:40.111Z,7.57
2019-02-22T21:42:19.860Z,8.00
2019-02-22T21:44:42.586Z,6.63
2019-02-22T21:47:12.804Z,8.40
2019-02-22T21:49:42.992Z,8.00
2019-02-22T21:52:16.420Z,7.57
2019-02-22T21:54:46.644Z,8.40
2019-02-22T21:57:22.547Z,7.83
2019-02-22T21:59:53.373Z,8.50
2019-02-22T22:02:22.798Z,8.63
2019-02-22T22:04:52.987Z,8.40
2019-02-22T22:07:23.229Z,8.73
2019-02-22T22:09:57.621Z,8.87
2019-02-22T22:12:29.924Z,9.23
2019-02-22T22:15:00.033Z,9.47
2019-02-22T22:17:30.220Z,8.57
2019-02-22T22:20:00.430Z,9.20
2019-02-22T22:22:30.715Z,11.10
2019-02-22T22:25:00.948Z,9.07
2019-02-22T22:27:32.260Z,9.40
2019-02-22T22:30:02.446Z,8.87
2019-02-22T22:32:36.948Z,9.00
2019-02-22T22:35:11.281Z,8.90
2019-02-22T22:37:42.684Z,8.50
2019-02-22T22:40:19.831Z,9.10
2019-02-22T22:42:51.581Z,9.50
2019-02-22T22:45:23.738Z,9.10
2019-02-22T22:47:53.662Z,9.63
2019-02-22T22:50:23.772Z,10.47
2019-02-22T22:52:54.022Z,9.03
2019-02-22T22:55:24.162Z,9.00
2019-02-22T22:57:54.289Z,9.43
2019-02-22T23:00:59.156Z,9.17
2019-02-22T23:03:30.520Z,10.40
2019-02-22T23:06:00.814Z,10.10
2019-02-22T23:08:32.545Z,10.40
2019-02-22T23:11:02.638Z,11.13
2019-02-22T23:13:36.167Z,10.73
2019-02-22T23:16:07.273Z,11.13
2019-02-22T23:18:37.371Z,11.30
2019-02-22T23:21:08.114Z,13.30
2019-02-22T23:23:38.252Z,9.77
2019-02-22T23:26:09.634Z,11.63
2019-02-22T23:28:39.799Z,11.90
2019-02-22T23:31:13.695Z,12.07
2019-02-22T23:33:43.790Z,13.90
2019-02-22T23:36:13.881Z,11.60
2019-02-22T23:38:43.999Z,13.33
2019-02-22T23:41:16.508Z,12.97
2019-02-22T23:43:48.697Z,12.90
2019-02-22T23:46:18.833Z,11.10
2019-02-22T23:48:48.930Z,13.00
2019-02-22T23:51:19.043Z,12.60
2019-02-22T23:53:49.231Z,12.10
2019-02-22T23:56:19.328Z,13.50
2019-02-22T23:58:53.227Z,15.07
